18:58
Airports
Links
Donate
Help keep this website running!
PayPal
Bitcoin
METAR
LROP 211830Z 05011KT 5000 -SN BR BKN006 OVC012 01/M00 Q1017 R88/29//95 NOSIG
Current Weather Conditions at LROP
IFR 18:30:00 21-02-18
Altimeter:30.03 hg
Temp:1.0°c 34°f
Dew point:0.0°c 32°f
Wind:11 knots, 12.7 mph, 6 m/s, from 50°
Visibility:3.11 statute miles
1200(OVC) Overcast
600(BKN) Broken
No significant weather changes expected within 2 hours.
Past METAR reports
IFR 18:00:00 21-02-18
Altimeter:30.03 hg
Temp:1.0°c 34°f
Dew point:0.0°c 32°f
Wind:11 knots, 12.7 mph, 6 m/s, from 50°
Visibility:3.11 statute miles
1200(OVC) Overcast
700(BKN) Broken
No significant weather changes expected within 2 hours.
LROP 211800Z 05011KT 5000 -SN BR BKN007 OVC012 01/M00 Q1017 R88/29//95 NOSIG
IFR 17:30:00 21-02-18
Altimeter:30.03 hg
Temp:1.0°c 34°f
Dew point:0.0°c 32°f
Wind:10 knots, 11.5 mph, 5 m/s, from 50°
Visibility:3.11 statute miles
1200(OVC) Overcast
700(BKN) Broken
No significant weather changes expected within 2 hours.
LROP 211730Z 05010KT 5000 -SN BKN007 OVC012 01/M00 Q1017 R88/29//95 NOSIG
IFR 17:00:00 21-02-18
Altimeter:30.03 hg
Temp:1.0°c 34°f
Dew point:0.0°c 32°f
Wind:11 knots, 12.7 mph, 6 m/s, from 60°
Visibility:3.11 statute miles
1200(OVC) Overcast
900(BKN) Broken
No significant weather changes expected within 2 hours.
LROP 211700Z 06011KT 5000 -SN BR BKN009 OVC012 01/M00 Q1017 R88/29//95 NOSIG
IFR 16:30:00 21-02-18
Altimeter:30.03 hg
Temp:1.0°c 34°f
Dew point:0.0°c 32°f
Wind:10 knots, 11.5 mph, 5 m/s, from 50°
Visibility:3.11 statute miles
1200(OVC) Overcast
900(BKN) Broken
No significant weather changes expected within 2 hours.
LROP 211630Z 05010KT 5000 -SN BR BKN009 OVC012 01/M00 Q1017 R88/29//95 NOSIG
MVFR 16:00:00 21-02-18
Altimeter:30.03 hg
Temp:1.0°c 34°f
Dew point:0.0°c 32°f
Wind:11 knots, 12.7 mph, 6 m/s, from 50°
Visibility:3.11 statute miles
1000(OVC) Overcast
No significant weather changes expected within 2 hours.
LROP 211600Z 05011KT 5000 -SN BR OVC010 01/M00 Q1017 R88/19//95 NOSIG
MVFR 15:30:00 21-02-18
Altimeter:30.03 hg
Temp:1.0°c 34°f
Dew point:0.0°c 32°f
Wind:12 knots, 13.8 mph, 6 m/s, from 50°
Visibility:4.97 statute miles
1000(OVC) Overcast
No significant weather changes expected within 2 hours.
LROP 211530Z 05012KT 8000 -DZ OVC010 01/00 Q1017 NOSIG
TAF
TAF LROP 211700Z 2118/2218 05015KT 5000 -SN BR BKN005 OVC015 TEMPO 2118/2122 3000 -SN BR BECMG 2122/2124 3000 BR BKN010 OVC025 BECMG 2204/2206 5000 -SN TEMPO 2210/2216 3000 -RASN BR
Forecast at LROP
18:00 21-02-18 to 22:00 21-02-18
-SN BR
Wind:15 Knots from 50°
Visibility:3.11 statute miles
500BKN Broken
1500OVC Overcast
TEMPO 18:00 21-02-18 to 22:00 21-02-18
-SN BR
Visibility:1.86 statute miles
BECMG 22:00 21-02-18 to 04:00 22-02-18
BR
Wind:15 Knots from 50°
Visibility:1.86 statute miles
1000BKN Broken
2500OVC Overcast
BECMG 04:00 22-02-18 to 18:00 22-02-18
-SN
Wind:15 Knots from 50°
Visibility:3.11 statute miles
1000BKN Broken
2500OVC Overcast
TEMPO 10:00 22-02-18 to 16:00 22-02-18
-RA -SN BR
Visibility:1.86 statute miles